Barkly West, South Africa
Current Conditions -  °F | °C
As of 1:00 AM on Tuesday 21 Oct 2014 (Local Time) from FAKM Reporting Station
NA  
Wind Chill: 61°   Ceiling: NA
Heat Index: 61°   Visibility: NA
Dew Point: 19°   Wind: 6mph
Humidity: 20%   Direction: 180°S
Pressure: 30.03"   Gusts: NA
Location:  28.53°S, 24.53°E
Report Text: FAKM 202300Z AUTO 18005KT //// // ////// 16/M07 Q1017
Loading
Personal Weather Stations






























Interactive Weather Map
Tropical Storm Tracking
New forecast layout! Learn more

10-Day Weather Forecast

Advertisements
Track Severe Weather on mobile